createdAt,value
2022-09-14T00:01:46.579Z,23.00
2022-09-14T00:04:17.805Z,23.00
2022-09-14T00:06:46.677Z,22.90
2022-09-14T00:09:17.833Z,22.90
2022-09-14T00:11:48.323Z,23.00
2022-09-14T00:14:18.042Z,23.00
2022-09-14T00:16:47.033Z,23.00
2022-09-14T00:19:19.803Z,23.00
2022-09-14T00:21:52.770Z,23.10
2022-09-14T00:24:22.063Z,23.00
2022-09-14T00:26:52.501Z,23.00
2022-09-14T00:29:21.732Z,23.10
2022-09-14T00:31:50.624Z,23.00
2022-09-14T00:34:20.427Z,23.00
2022-09-14T00:36:51.246Z,23.00
2022-09-14T00:39:21.493Z,23.00
2022-09-14T00:41:52.912Z,22.90
2022-09-14T00:45:13.401Z,22.90
2022-09-14T00:47:43.484Z,23.10
2022-09-14T00:50:12.771Z,23.10
2022-09-14T00:52:44.932Z,23.10
2022-09-14T00:55:16.739Z,23.00
2022-09-14T00:57:49.930Z,23.10
2022-09-14T01:00:21.281Z,23.00
2022-09-14T01:02:50.494Z,23.00
2022-09-14T01:05:19.931Z,23.00
2022-09-14T01:08:20.236Z,22.90
2022-09-14T01:11:18.576Z,22.80
2022-09-14T01:13:58.948Z,22.70
2022-09-14T01:16:34.300Z,22.70
2022-09-14T01:19:08.574Z,22.70
2022-09-14T01:21:39.888Z,22.70
2022-09-14T01:24:17.929Z,22.70
2022-09-14T01:27:13.768Z,22.70
2022-09-14T01:29:46.195Z,22.70
2022-09-14T01:32:18.455Z,22.70
2022-09-14T01:34:53.395Z,22.70
2022-09-14T01:37:26.661Z,22.70
2022-09-14T01:39:59.843Z,22.70
2022-09-14T01:42:31.684Z,22.70
2022-09-14T01:45:03.360Z,22.60
2022-09-14T01:47:37.191Z,22.60
2022-09-14T01:50:11.780Z,22.50
2022-09-14T01:52:44.893Z,22.50
2022-09-14T01:55:20.535Z,22.60
2022-09-14T01:57:55.320Z,22.60
2022-09-14T02:00:25.475Z,22.70
2022-09-14T02:02:56.655Z,22.70
2022-09-14T02:05:35.943Z,22.60
2022-09-14T02:08:05.261Z,22.70
2022-09-14T02:10:35.022Z,22.60
2022-09-14T02:13:07.305Z,22.60
2022-09-14T02:15:37.924Z,22.70
2022-09-14T02:18:07.346Z,22.70
2022-09-14T02:20:40.850Z,22.60
2022-09-14T02:23:10.362Z,22.60
2022-09-14T02:25:41.212Z,22.70
2022-09-14T02:28:11.487Z,22.60
2022-09-14T02:30:48.498Z,22.60
2022-09-14T02:33:23.557Z,22.60
2022-09-14T02:35:57.090Z,22.60
2022-09-14T02:38:37.120Z,22.60
2022-09-14T02:41:14.202Z,22.60
2022-09-14T02:43:50.809Z,22.60
2022-09-14T02:46:28.360Z,22.50
2022-09-14T02:49:04.468Z,22.40
2022-09-14T02:51:38.274Z,22.20
2022-09-14T02:54:12.595Z,22.30
2022-09-14T02:56:41.505Z,22.30
2022-09-14T02:59:11.826Z,22.20
2022-09-14T03:01:40.879Z,22.00
2022-09-14T03:04:09.742Z,22.00
2022-09-14T03:06:38.628Z,22.00
2022-09-14T03:09:07.361Z,22.00
2022-09-14T03:11:37.474Z,21.90
2022-09-14T03:14:07.393Z,21.90
2022-09-14T03:16:38.969Z,21.90
2022-09-14T03:19:08.093Z,21.80
2022-09-14T03:21:39.215Z,21.80
2022-09-14T03:24:08.519Z,21.70
2022-09-14T03:26:38.763Z,21.70
2022-09-14T03:29:08.275Z,21.70
2022-09-14T03:31:38.840Z,21.70
2022-09-14T03:34:07.728Z,21.60
2022-09-14T03:36:36.568Z,21.60
2022-09-14T03:39:05.586Z,21.60
2022-09-14T03:41:34.471Z,21.70
2022-09-14T03:44:03.673Z,21.70
2022-09-14T03:46:32.666Z,21.70
2022-09-14T03:49:03.083Z,21.70
2022-09-14T03:51:32.102Z,21.60
2022-09-14T03:54:00.984Z,21.70
2022-09-14T03:56:29.797Z,21.50
2022-09-14T03:58:58.586Z,21.60
2022-09-14T04:01:27.484Z,21.60
2022-09-14T04:03:56.944Z,21.70
2022-09-14T04:06:27.487Z,21.60
2022-09-14T04:08:56.605Z,21.60
2022-09-14T04:11:26.761Z,19.40
2022-09-14T04:13:55.772Z,21.60
2022-09-14T04:16:24.612Z,21.50
2022-09-14T04:18:53.386Z,21.60
2022-09-14T04:21:24.811Z,21.70
2022-09-14T04:24:14.245Z,21.60
2022-09-14T04:26:44.630Z,21.60
2022-09-14T04:29:14.782Z,21.50
2022-09-14T04:31:43.780Z,21.50
2022-09-14T04:34:14.897Z,21.50
2022-09-14T04:36:43.835Z,21.40
2022-09-14T04:39:15.382Z,21.50
2022-09-14T04:41:44.381Z,21.30
2022-09-14T04:44:13.823Z,21.50
2022-09-14T04:46:46.560Z,21.50
2022-09-14T04:49:16.760Z,21.60
2022-09-14T04:51:46.194Z,21.60
2022-09-14T04:54:17.918Z,21.50
2022-09-14T04:56:48.258Z,21.50
2022-09-14T04:59:17.228Z,21.50
2022-09-14T05:01:48.602Z,21.50
2022-09-14T05:04:17.674Z,21.50
2022-09-14T05:06:46.574Z,21.50
2022-09-14T05:09:18.678Z,21.60
2022-09-14T05:11:49.757Z,21.50
2022-09-14T05:14:18.602Z,21.50
2022-09-14T05:16:48.216Z,21.60
2022-09-14T05:19:18.862Z,21.60
2022-09-14T05:21:48.305Z,21.70
2022-09-14T05:24:19.936Z,21.50
2022-09-14T05:26:49.166Z,21.70
2022-09-14T05:29:19.552Z,21.80
2022-09-14T05:31:48.976Z,21.70
2022-09-14T05:34:17.717Z,21.80
2022-09-14T05:36:46.670Z,21.80
2022-09-14T05:39:18.700Z,21.80
2022-09-14T05:41:52.269Z,21.70
2022-09-14T05:44:21.037Z,22.70
2022-09-14T05:46:49.928Z,21.80
2022-09-14T05:49:18.693Z,21.80
2022-09-14T05:51:47.528Z,21.90
2022-09-14T05:54:16.306Z,21.90
2022-09-14T05:56:45.084Z,21.90
2022-09-14T05:59:15.505Z,22.00
2022-09-14T06:01:44.373Z,22.10
2022-09-14T06:04:13.447Z,22.10
2022-09-14T06:06:49.332Z,22.10
2022-09-14T06:09:33.224Z,22.20
2022-09-14T06:12:02.361Z,22.30
2022-09-14T06:14:32.551Z,22.30
2022-09-14T06:17:01.632Z,22.50
2022-09-14T06:19:30.421Z,22.60
2022-09-14T06:21:59.524Z,22.50
2022-09-14T06:24:28.373Z,22.60
2022-09-14T06:26:57.197Z,22.60
2022-09-14T06:29:26.074Z,22.60
2022-09-14T06:31:57.300Z,22.70
2022-09-14T06:34:26.134Z,22.70
2022-09-14T06:36:54.997Z,22.70
2022-09-14T06:39:24.986Z,22.90
2022-09-14T06:41:53.796Z,22.90
2022-09-14T06:44:22.596Z,22.90
2022-09-14T06:46:51.348Z,22.90
2022-09-14T06:49:23.427Z,22.80
2022-09-14T06:51:54.979Z,22.80
2022-09-14T06:54:23.865Z,22.90
2022-09-14T06:56:52.713Z,23.10
2022-09-14T06:59:21.622Z,23.10
2022-09-14T07:01:50.957Z,23.20
2022-09-14T07:04:21.755Z,23.30
2022-09-14T07:06:51.393Z,23.30
2022-09-14T07:09:21.277Z,23.30
2022-09-14T07:11:50.928Z,23.30
2022-09-14T07:14:20.334Z,23.50
2022-09-14T07:16:49.285Z,23.70
2022-09-14T07:19:18.155Z,23.70
2022-09-14T07:21:48.642Z,23.70
2022-09-14T07:24:17.733Z,23.40
2022-09-14T07:26:46.503Z,23.50
2022-09-14T07:29:17.733Z,23.60
2022-09-14T07:31:48.162Z,23.70
2022-09-14T07:34:17.636Z,23.80
2022-09-14T07:36:48.007Z,23.90
2022-09-14T07:39:18.461Z,23.90
2022-09-14T07:41:47.301Z,23.90
2022-09-14T07:44:17.715Z,24.00
2022-09-14T07:46:47.741Z,24.10
2022-09-14T07:49:17.388Z,24.10
2022-09-14T07:51:48.820Z,24.20
2022-09-14T07:54:19.520Z,24.30
2022-09-14T07:56:48.820Z,24.60
2022-09-14T07:59:35.077Z,24.80
2022-09-14T08:02:06.352Z,24.70
2022-09-14T08:04:36.724Z,24.90
2022-09-14T08:07:07.997Z,24.90
2022-09-14T08:09:36.696Z,25.10
2022-09-14T08:12:06.028Z,25.40
2022-09-14T08:14:34.895Z,25.50
2022-09-14T08:17:03.879Z,25.60
2022-09-14T08:19:32.596Z,25.20
2022-09-14T08:22:01.290Z,25.50
2022-09-14T08:24:32.411Z,25.60
2022-09-14T08:27:01.207Z,25.70
2022-09-14T08:29:29.968Z,25.60
2022-09-14T08:31:58.731Z,25.50
2022-09-14T08:34:27.550Z,25.60
2022-09-14T08:36:56.351Z,25.60
2022-09-14T08:39:25.065Z,25.50
2022-09-14T08:41:57.124Z,25.60
2022-09-14T08:44:29.584Z,25.80
2022-09-14T08:47:03.050Z,25.70
2022-09-14T08:49:48.140Z,25.50
2022-09-14T08:52:24.425Z,25.70
2022-09-14T08:54:56.988Z,26.10
2022-09-14T08:57:34.526Z,26.30
2022-09-14T09:00:11.052Z,26.10
2022-09-14T09:03:10.744Z,26.10
2022-09-14T09:05:47.393Z,25.70
2022-09-14T09:08:21.485Z,25.70
2022-09-14T09:10:53.767Z,25.50
2022-09-14T09:13:28.070Z,25.60
2022-09-14T09:16:01.010Z,25.70
2022-09-14T09:18:37.638Z,25.20
2022-09-14T09:21:12.058Z,25.30
2022-09-14T09:23:42.380Z,25.20
2022-09-14T09:26:17.842Z,25.30
2022-09-14T09:28:50.887Z,25.30
2022-09-14T09:31:23.170Z,25.10
2022-09-14T09:34:17.027Z,25.20
2022-09-14T09:36:49.065Z,25.20
2022-09-14T09:39:18.123Z,25.10
2022-09-14T09:41:50.346Z,25.20
2022-09-14T09:44:20.589Z,25.20
2022-09-14T09:46:53.255Z,25.40
2022-09-14T09:49:24.993Z,25.50
2022-09-14T09:51:54.793Z,25.60
2022-09-14T09:54:28.235Z,25.60
2022-09-14T09:56:59.544Z,25.60
2022-09-14T09:59:36.584Z,25.50
2022-09-14T10:02:27.648Z,25.60
2022-09-14T10:05:03.039Z,25.70
2022-09-14T10:07:35.036Z,25.60
2022-09-14T10:10:06.529Z,25.60
2022-09-14T10:12:37.441Z,25.80
2022-09-14T10:15:25.890Z,25.80
2022-09-14T10:18:18.187Z,26.10
2022-09-14T10:21:07.337Z,26.10
2022-09-14T10:23:37.693Z,26.00
2022-09-14T10:26:28.411Z,26.30
2022-09-14T10:29:37.886Z,26.00
2022-09-14T10:32:20.373Z,26.00
2022-09-14T10:34:49.178Z,25.80
2022-09-14T10:37:30.307Z,25.80
2022-09-14T10:40:17.088Z,25.80
2022-09-14T10:43:01.181Z,25.90
2022-09-14T10:45:33.082Z,26.10
2022-09-14T10:48:23.709Z,26.40
2022-09-14T10:51:02.808Z,26.40
2022-09-14T10:53:54.114Z,26.60
2022-09-14T10:56:27.717Z,27.00
2022-09-14T10:59:09.553Z,26.60
2022-09-14T11:02:07.192Z,26.40
2022-09-14T11:04:59.050Z,26.60
2022-09-14T11:07:37.296Z,26.80
2022-09-14T11:10:18.470Z,27.00
2022-09-14T11:13:00.699Z,27.00
2022-09-14T11:15:33.889Z,26.70
2022-09-14T11:18:16.982Z,26.80
2022-09-14T11:20:55.070Z,27.10
2022-09-14T11:23:34.332Z,27.60
2022-09-14T11:26:13.244Z,27.50
2022-09-14T11:28:45.918Z,28.50
2022-09-14T11:31:22.137Z,28.90
2022-09-14T11:33:57.413Z,28.00
2022-09-14T11:36:30.897Z,27.80
2022-09-14T11:39:06.841Z,28.40
2022-09-14T11:41:40.761Z,28.50
2022-09-14T11:44:16.055Z,28.50
2022-09-14T11:46:51.054Z,28.60
2022-09-14T11:49:26.391Z,28.90
2022-09-14T11:52:01.687Z,28.10
2022-09-14T11:54:30.642Z,28.10
2022-09-14T11:57:03.245Z,28.10
2022-09-14T11:59:54.469Z,28.00
2022-09-14T12:03:00.615Z,28.50
2022-09-14T12:05:35.213Z,28.90
2022-09-14T12:08:21.988Z,28.60
2022-09-14T12:11:22.664Z,28.60
2022-09-14T12:13:51.656Z,28.20
2022-09-14T12:16:20.880Z,27.40
2022-09-14T12:18:57.844Z,27.50
2022-09-14T12:21:27.557Z,27.60
2022-09-14T12:23:59.644Z,27.80
2022-09-14T12:26:33.160Z,27.50
2022-09-14T12:29:25.498Z,27.70
2022-09-14T12:32:05.322Z,28.30
2022-09-14T12:34:34.973Z,29.00
2022-09-14T12:37:29.728Z,29.40
2022-09-14T12:40:46.236Z,29.30
2022-09-14T12:43:56.470Z,28.60
2022-09-14T12:46:39.902Z,28.50
2022-09-14T12:49:33.662Z,28.50
2022-09-14T12:52:12.530Z,28.40
2022-09-14T12:54:51.780Z,27.70
2022-09-14T12:57:31.689Z,27.40
2022-09-14T13:00:11.708Z,26.90
2022-09-14T13:03:17.327Z,27.00
2022-09-14T13:05:47.113Z,27.60
2022-09-14T13:08:23.860Z,28.30
2022-09-14T13:10:53.932Z,28.90
2022-09-14T13:13:27.016Z,28.70
2022-09-14T13:15:58.007Z,28.90
2022-09-14T13:18:36.394Z,28.90
2022-09-14T13:21:19.844Z,28.70
2022-09-14T13:23:49.189Z,28.60
2022-09-14T13:26:21.778Z,28.60
2022-09-14T13:28:52.708Z,28.70
2022-09-14T13:31:27.145Z,28.70
2022-09-14T13:33:57.740Z,28.70
2022-09-14T13:36:30.697Z,28.50
2022-09-14T13:39:02.252Z,28.40
2022-09-14T13:41:32.529Z,28.30
2022-09-14T13:44:01.930Z,28.10
2022-09-14T13:46:30.884Z,28.30
2022-09-14T13:49:01.196Z,28.30
2022-09-14T13:51:31.628Z,28.50
2022-09-14T13:54:19.679Z,28.80
2022-09-14T13:57:08.544Z,29.70
2022-09-14T13:59:37.561Z,29.90
2022-09-14T14:02:15.251Z,29.70
2022-09-14T14:04:50.291Z,31.20
2022-09-14T14:07:23.375Z,30.00
2022-09-14T14:09:54.287Z,30.10
2022-09-14T14:12:25.884Z,30.60
2022-09-14T14:14:56.312Z,30.10
2022-09-14T14:17:37.001Z,29.40
2022-09-14T14:20:33.361Z,29.10
2022-09-14T14:23:16.972Z,28.90
2022-09-14T14:25:48.808Z,29.30
2022-09-14T14:28:19.962Z,29.60
2022-09-14T14:30:48.784Z,29.50
2022-09-14T14:33:19.889Z,30.40
2022-09-14T14:35:51.916Z,31.30
2022-09-14T14:38:20.906Z,30.70
2022-09-14T14:40:49.979Z,30.70
2022-09-14T14:43:21.322Z,29.70
2022-09-14T14:45:51.742Z,29.30
2022-09-14T14:48:20.570Z,28.80
2022-09-14T14:50:51.017Z,28.50
2022-09-14T14:53:19.878Z,28.50
2022-09-14T14:55:48.640Z,28.90
2022-09-14T14:58:19.228Z,29.00
2022-09-14T15:00:48.486Z,28.80
2022-09-14T15:03:19.151Z,28.50
2022-09-14T15:05:50.308Z,28.30
2022-09-14T15:08:21.106Z,28.20
2022-09-14T15:10:50.555Z,28.20
2022-09-14T15:13:19.360Z,28.20
2022-09-14T15:15:48.190Z,28.10
2022-09-14T15:18:16.965Z,28.00
2022-09-14T15:20:45.716Z,27.90
2022-09-14T15:23:16.662Z,27.90
2022-09-14T15:25:45.421Z,27.70
2022-09-14T15:28:14.223Z,27.60
2022-09-14T15:30:43.713Z,27.60
2022-09-14T15:33:14.008Z,27.50
2022-09-14T15:35:42.837Z,27.50
2022-09-14T15:38:11.828Z,27.50
2022-09-14T15:40:42.079Z,27.50
2022-09-14T15:43:10.914Z,27.40
2022-09-14T15:45:39.824Z,27.30
2022-09-14T15:48:08.665Z,27.30
2022-09-14T15:50:41.803Z,27.20
2022-09-14T15:53:10.923Z,27.20
2022-09-14T15:55:44.629Z,27.10
2022-09-14T15:58:14.512Z,27.10
2022-09-14T16:00:45.532Z,27.10
2022-09-14T16:03:15.843Z,27.10
2022-09-14T16:05:44.593Z,27.10
2022-09-14T16:08:13.363Z,27.10
2022-09-14T16:10:43.616Z,27.10
2022-09-14T16:13:12.476Z,27.00
2022-09-14T16:15:41.613Z,27.00
2022-09-14T16:18:10.420Z,27.00
2022-09-14T16:20:39.236Z,26.90
2022-09-14T16:23:07.959Z,26.90
2022-09-14T16:25:40.774Z,26.90
2022-09-14T16:28:10.999Z,26.90
2022-09-14T16:30:39.812Z,26.80
2022-09-14T16:33:08.606Z,26.70
2022-09-14T16:35:37.411Z,26.70
2022-09-14T16:38:06.199Z,26.60
2022-09-14T16:40:35.056Z,26.60
2022-09-14T16:43:03.899Z,26.60
2022-09-14T16:45:34.189Z,26.60
2022-09-14T16:48:03.351Z,26.60
2022-09-14T16:50:32.113Z,26.70
2022-09-14T16:53:02.029Z,26.60
2022-09-14T16:55:32.561Z,26.50
2022-09-14T16:58:01.476Z,26.40
2022-09-14T17:00:30.272Z,26.40
2022-09-14T17:03:00.593Z,26.40
2022-09-14T17:05:29.342Z,26.40
2022-09-14T17:07:58.158Z,26.30
2022-09-14T17:10:26.983Z,26.20
2022-09-14T17:12:56.055Z,26.20
2022-09-14T17:15:24.785Z,26.10
2022-09-14T17:17:53.598Z,26.10
2022-09-14T17:20:23.813Z,26.20
2022-09-14T17:22:52.633Z,26.20
2022-09-14T17:25:23.754Z,26.20
2022-09-14T17:27:52.710Z,26.20
2022-09-14T17:30:21.469Z,26.20
2022-09-14T17:32:50.234Z,26.10
2022-09-14T17:35:19.064Z,26.10
2022-09-14T17:37:49.277Z,25.90
2022-09-14T17:40:18.255Z,25.60
2022-09-14T17:42:47.107Z,25.50
2022-09-14T17:45:16.128Z,25.20
2022-09-14T17:47:46.016Z,25.10
2022-09-14T17:50:14.871Z,25.00
2022-09-14T17:52:44.084Z,25.10
2022-09-14T17:55:14.367Z,25.00
2022-09-14T17:57:43.169Z,25.00
2022-09-14T18:00:13.226Z,25.00
2022-09-14T18:02:42.136Z,25.00
2022-09-14T18:05:11.741Z,25.00
2022-09-14T18:07:40.518Z,25.10
2022-09-14T18:10:09.815Z,25.10
2022-09-14T18:12:40.061Z,25.10
2022-09-14T18:15:09.771Z,25.10
2022-09-14T18:17:38.557Z,25.00
2022-09-14T18:20:09.469Z,25.00
2022-09-14T18:22:38.972Z,24.80
2022-09-14T18:25:09.141Z,24.70
2022-09-14T18:27:39.422Z,24.70
2022-09-14T18:30:09.534Z,24.80
2022-09-14T18:32:38.362Z,24.70
2022-09-14T18:35:09.074Z,24.60
2022-09-14T18:37:37.907Z,24.60
2022-09-14T18:40:07.388Z,24.70
2022-09-14T18:42:36.547Z,24.70
2022-09-14T18:45:09.797Z,24.70
2022-09-14T18:47:38.644Z,24.70
2022-09-14T18:50:08.331Z,24.80
2022-09-14T18:52:37.390Z,24.80
2022-09-14T18:55:06.841Z,24.70
2022-09-14T18:57:35.862Z,24.60
2022-09-14T19:00:07.950Z,24.80
2022-09-14T19:02:39.119Z,24.70
2022-09-14T19:05:08.720Z,24.70
2022-09-14T19:07:38.961Z,24.80
2022-09-14T19:10:11.590Z,24.80
2022-09-14T19:12:41.532Z,24.80
2022-09-14T19:15:12.924Z,24.90
2022-09-14T19:17:41.799Z,24.90
2022-09-14T19:20:11.825Z,24.70
2022-09-14T19:22:40.989Z,24.70
2022-09-14T19:25:10.406Z,24.70
2022-09-14T19:27:39.837Z,24.70
2022-09-14T19:30:12.269Z,24.90
2022-09-14T19:32:41.144Z,24.90
2022-09-14T19:35:11.213Z,24.90
2022-09-14T19:37:40.770Z,24.80
2022-09-14T19:40:12.114Z,24.70
2022-09-14T19:42:40.998Z,24.80
2022-09-14T19:45:12.509Z,24.90
2022-09-14T19:47:41.750Z,24.90
2022-09-14T19:50:11.917Z,24.70
2022-09-14T19:52:41.571Z,24.70
2022-09-14T19:55:11.219Z,24.70
2022-09-14T19:57:40.070Z,24.70
2022-09-14T20:00:17.495Z,24.80
2022-09-14T20:02:47.463Z,24.80
2022-09-14T20:05:16.994Z,24.80
2022-09-14T20:07:45.799Z,24.80
2022-09-14T20:10:14.599Z,24.70
2022-09-14T20:12:43.427Z,24.50
2022-09-14T20:15:14.137Z,24.50
2022-09-14T20:17:43.076Z,24.30
2022-09-14T20:20:12.641Z,24.40
2022-09-14T20:22:43.033Z,24.50
2022-09-14T20:25:11.901Z,24.50
2022-09-14T20:27:40.877Z,24.60
2022-09-14T20:30:11.028Z,24.70
2022-09-14T20:32:42.131Z,24.60
2022-09-14T20:35:11.266Z,24.60
2022-09-14T20:37:40.167Z,24.40
2022-09-14T20:40:10.691Z,24.40
2022-09-14T20:42:39.537Z,24.30
2022-09-14T20:45:09.855Z,24.30
2022-09-14T20:47:38.724Z,24.40
2022-09-14T20:50:09.901Z,24.50
2022-09-14T20:52:38.682Z,24.40
2022-09-14T20:55:08.695Z,24.30
2022-09-14T20:57:37.741Z,24.20
2022-09-14T21:00:07.421Z,23.90
2022-09-14T21:02:40.168Z,24.00
2022-09-14T21:05:10.913Z,23.90
2022-09-14T21:07:39.808Z,23.70
2022-09-14T21:10:10.064Z,23.70
2022-09-14T21:12:39.044Z,23.80
2022-09-14T21:15:08.529Z,23.90
2022-09-14T21:17:37.381Z,23.90
2022-09-14T21:20:07.485Z,23.90
2022-09-14T21:22:38.641Z,23.90
2022-09-14T21:25:11.763Z,24.00
2022-09-14T21:27:41.181Z,24.10
2022-09-14T21:30:11.668Z,24.10
2022-09-14T21:32:41.437Z,24.10
2022-09-14T21:35:11.168Z,24.10
2022-09-14T21:37:42.079Z,24.10
2022-09-14T21:40:12.595Z,24.00
2022-09-14T21:42:42.097Z,23.90
2022-09-14T21:45:12.892Z,23.90
2022-09-14T21:47:42.359Z,23.90
2022-09-14T21:50:12.339Z,23.70
2022-09-14T21:52:46.412Z,23.60
2022-09-14T21:55:15.859Z,23.70
2022-09-14T21:57:45.144Z,23.50
2022-09-14T22:00:15.294Z,23.40
2022-09-14T22:02:44.803Z,23.60
2022-09-14T22:05:14.363Z,23.50
2022-09-14T22:07:44.346Z,23.40
2022-09-14T22:10:15.158Z,23.40
2022-09-14T22:12:44.713Z,23.30
2022-09-14T22:15:14.063Z,23.30
2022-09-14T22:17:43.468Z,23.30
2022-09-14T22:20:13.912Z,23.20
2022-09-14T22:22:45.797Z,23.20
2022-09-14T22:25:17.233Z,23.30
2022-09-14T22:27:47.139Z,21.70
2022-09-14T22:30:16.677Z,23.30
2022-09-14T22:32:46.317Z,23.30
2022-09-14T22:35:15.650Z,23.30
2022-09-14T22:37:46.291Z,23.40
2022-09-14T22:40:17.495Z,23.30
2022-09-14T22:42:47.901Z,23.30
2022-09-14T22:45:18.609Z,23.30
2022-09-14T22:47:48.908Z,23.30
2022-09-14T22:50:18.526Z,23.40
2022-09-14T22:52:48.028Z,23.30
2022-09-14T22:55:19.224Z,23.30
2022-09-14T22:57:48.605Z,23.30
2022-09-14T23:00:18.340Z,23.40
2022-09-14T23:02:48.090Z,23.40
2022-09-14T23:05:17.718Z,23.50
2022-09-14T23:07:47.368Z,23.50
2022-09-14T23:10:19.787Z,23.50
2022-09-14T23:12:49.402Z,23.40
2022-09-14T23:15:19.104Z,23.30
2022-09-14T23:17:51.978Z,23.30
2022-09-14T23:20:21.733Z,23.40
2022-09-14T23:22:51.202Z,23.30
2022-09-14T23:25:22.159Z,23.30
2022-09-14T23:27:51.596Z,23.30
2022-09-14T23:30:21.080Z,23.20
2022-09-14T23:32:50.565Z,23.10
2022-09-14T23:35:20.120Z,23.10
2022-09-14T23:37:49.700Z,23.00
2022-09-14T23:40:21.380Z,23.10
2022-09-14T23:42:51.639Z,23.00
2022-09-14T23:45:21.070Z,22.90
2022-09-14T23:47:50.463Z,22.80
2022-09-14T23:50:20.010Z,22.90
2022-09-14T23:52:49.510Z,22.90
2022-09-14T23:55:19.149Z,22.80
2022-09-14T23:57:49.953Z,22.70
